sensor_id;sensor_type;location;lat;lon;timestamp;P1;durP1;ratioP1;P2;durP2;ratioP2
45296;SDS011;31040;51.622;10.420;2024-02-26T00:01:20;1.92;;;1.40;;
45296;SDS011;31040;51.622;10.420;2024-02-26T00:03:47;1.45;;;1.25;;
45296;SDS011;31040;51.622;10.420;2024-02-26T00:06:14;2.70;;;1.23;;
45296;SDS011;31040;51.622;10.420;2024-02-26T00:08:42;1.67;;;1.20;;
45296;SDS011;31040;51.622;10.420;2024-02-26T00:11:10;1.42;;;1.25;;
45296;SDS011;31040;51.622;10.420;2024-02-26T00:13:37;1.10;;;1.00;;
45296;SDS011;31040;51.622;10.420;2024-02-26T00:16:05;0.95;;;0.95;;
45296;SDS011;31040;51.622;10.420;2024-02-26T00:18:33;2.35;;;1.08;;
45296;SDS011;31040;51.622;10.420;2024-02-26T00:21:01;1.30;;;1.20;;
45296;SDS011;31040;51.622;10.420;2024-02-26T00:23:29;1.80;;;1.10;;
45296;SDS011;31040;51.622;10.420;2024-02-26T00:25:57;1.48;;;1.08;;
45296;SDS011;31040;51.622;10.420;2024-02-26T00:28:24;1.50;;;1.40;;
45296;SDS011;31040;51.622;10.420;2024-02-26T00:30:53;1.67;;;1.48;;
45296;SDS011;31040;51.622;10.420;2024-02-26T00:33:22;1.40;;;1.00;;
45296;SDS011;31040;51.622;10.420;2024-02-26T00:35:50;1.85;;;1.30;;
45296;SDS011;31040;51.622;10.420;2024-02-26T00:38:17;1.10;;;1.00;;
45296;SDS011;31040;51.622;10.420;2024-02-26T00:40:45;1.83;;;0.95;;
45296;SDS011;31040;51.622;10.420;2024-02-26T00:43:12;3.22;;;1.10;;
45296;SDS011;31040;51.622;10.420;2024-02-26T00:45:40;1.50;;;1.10;;
45296;SDS011;31040;51.622;10.420;2024-02-26T00:48:07;1.50;;;0.90;;
45296;SDS011;31040;51.622;10.420;2024-02-26T00:50:35;1.25;;;1.15;;
45296;SDS011;31040;51.622;10.420;2024-02-26T00:53:02;1.33;;;1.10;;
45296;SDS011;31040;51.622;10.420;2024-02-26T00:55:30;1.80;;;0.90;;
45296;SDS011;31040;51.622;10.420;2024-02-26T00:57:57;1.25;;;1.02;;
45296;SDS011;31040;51.622;10.420;2024-02-26T01:00:25;1.55;;;1.13;;
45296;SDS011;31040;51.622;10.420;2024-02-26T01:02:52;0.80;;;0.80;;
45296;SDS011;31040;51.622;10.420;2024-02-26T01:05:20;2.10;;;1.08;;
45296;SDS011;31040;51.622;10.420;2024-02-26T01:07:47;1.55;;;1.00;;
45296;SDS011;31040;51.622;10.420;2024-02-26T01:10:15;1.10;;;0.68;;
45296;SDS011;31040;51.622;10.420;2024-02-26T01:12:42;1.23;;;0.75;;
45296;SDS011;31040;51.622;10.420;2024-02-26T01:15:10;0.73;;;0.63;;
45296;SDS011;31040;51.622;10.420;2024-02-26T01:17:38;1.40;;;0.90;;
45296;SDS011;31040;51.622;10.420;2024-02-26T01:20:05;1.17;;;0.70;;
45296;SDS011;31040;51.622;10.420;2024-02-26T01:22:34;1.05;;;0.70;;
45296;SDS011;31040;51.622;10.420;2024-02-26T01:25:02;0.80;;;0.80;;
45296;SDS011;31040;51.622;10.420;2024-02-26T01:27:29;1.38;;;0.70;;
45296;SDS011;31040;51.622;10.420;2024-02-26T01:29:57;1.15;;;0.73;;
45296;SDS011;31040;51.622;10.420;2024-02-26T01:32:24;0.80;;;0.80;;
45296;SDS011;31040;51.622;10.420;2024-02-26T01:34:52;0.60;;;0.60;;
45296;SDS011;31040;51.622;10.420;2024-02-26T01:37:19;0.60;;;0.60;;
45296;SDS011;31040;51.622;10.420;2024-02-26T01:39:47;1.15;;;0.60;;
45296;SDS011;31040;51.622;10.420;2024-02-26T01:42:14;1.00;;;0.57;;
45296;SDS011;31040;51.622;10.420;2024-02-26T01:44:42;0.82;;;0.70;;
45296;SDS011;31040;51.622;10.420;2024-02-26T01:47:10;1.13;;;0.75;;
45296;SDS011;31040;51.622;10.420;2024-02-26T01:49:38;1.02;;;0.80;;
45296;SDS011;31040;51.622;10.420;2024-02-26T01:52:07;0.75;;;0.65;;
45296;SDS011;31040;51.622;10.420;2024-02-26T01:54:36;6.28;;;0.98;;
45296;SDS011;31040;51.622;10.420;2024-02-26T01:57:05;0.57;;;0.57;;
45296;SDS011;31040;51.622;10.420;2024-02-26T01:59:33;0.60;;;0.60;;
45296;SDS011;31040;51.622;10.420;2024-02-26T02:02:03;0.60;;;0.60;;
45296;SDS011;31040;51.622;10.420;2024-02-26T02:04:31;1.23;;;0.50;;
45296;SDS011;31040;51.622;10.420;2024-02-26T02:06:59;0.77;;;0.73;;
45296;SDS011;31040;51.622;10.420;2024-02-26T02:09:27;1.00;;;0.65;;
45296;SDS011;31040;51.622;10.420;2024-02-26T02:11:55;1.52;;;0.75;;
45296;SDS011;31040;51.622;10.420;2024-02-26T02:14:23;1.48;;;0.63;;
45296;SDS011;31040;51.622;10.420;2024-02-26T02:16:51;1.40;;;0.80;;
45296;SDS011;31040;51.622;10.420;2024-02-26T02:19:18;0.98;;;0.98;;
45296;SDS011;31040;51.622;10.420;2024-02-26T02:21:46;1.25;;;1.10;;
45296;SDS011;31040;51.622;10.420;2024-02-26T02:24:13;1.50;;;1.02;;
45296;SDS011;31040;51.622;10.420;2024-02-26T02:26:40;0.82;;;0.80;;
45296;SDS011;31040;51.622;10.420;2024-02-26T02:29:08;1.65;;;0.90;;
45296;SDS011;31040;51.622;10.420;2024-02-26T02:31:36;1.05;;;1.05;;
45296;SDS011;31040;51.622;10.420;2024-02-26T02:34:03;1.00;;;0.73;;
45296;SDS011;31040;51.622;10.420;2024-02-26T02:36:31;0.63;;;0.63;;
45296;SDS011;31040;51.622;10.420;2024-02-26T02:38:59;0.80;;;0.70;;
45296;SDS011;31040;51.622;10.420;2024-02-26T02:41:26;1.35;;;0.93;;
45296;SDS011;31040;51.622;10.420;2024-02-26T02:43:56;1.33;;;1.23;;
45296;SDS011;31040;51.622;10.420;2024-02-26T02:46:24;1.05;;;0.88;;
45296;SDS011;31040;51.622;10.420;2024-02-26T02:48:51;1.05;;;0.90;;
45296;SDS011;31040;51.622;10.420;2024-02-26T02:51:19;0.70;;;0.70;;
45296;SDS011;31040;51.622;10.420;2024-02-26T02:53:47;1.73;;;0.90;;
45296;SDS011;31040;51.622;10.420;2024-02-26T02:56:14;1.05;;;0.73;;
45296;SDS011;31040;51.622;10.420;2024-02-26T02:58:41;0.93;;;0.70;;
45296;SDS011;31040;51.622;10.420;2024-02-26T03:01:09;2.60;;;0.80;;
45296;SDS011;31040;51.622;10.420;2024-02-26T03:03:37;0.95;;;0.82;;
45296;SDS011;31040;51.622;10.420;2024-02-26T03:06:04;1.75;;;0.98;;
45296;SDS011;31040;51.622;10.420;2024-02-26T03:08:32;1.30;;;0.90;;
45296;SDS011;31040;51.622;10.420;2024-02-26T03:10:59;1.20;;;1.00;;
45296;SDS011;31040;51.622;10.420;2024-02-26T03:13:27;1.17;;;0.98;;
45296;SDS011;31040;51.622;10.420;2024-02-26T03:15:54;1.05;;;0.80;;
45296;SDS011;31040;51.622;10.420;2024-02-26T03:18:22;1.33;;;1.08;;
45296;SDS011;31040;51.622;10.420;2024-02-26T03:20:49;1.63;;;0.95;;
45296;SDS011;31040;51.622;10.420;2024-02-26T03:23:17;1.15;;;1.05;;
45296;SDS011;31040;51.622;10.420;2024-02-26T03:25:44;2.65;;;0.80;;
45296;SDS011;31040;51.622;10.420;2024-02-26T03:28:14;1.08;;;1.08;;
45296;SDS011;31040;51.622;10.420;2024-02-26T03:30:41;0.85;;;0.85;;
45296;SDS011;31040;51.622;10.420;2024-02-26T03:33:09;1.20;;;0.90;;
45296;SDS011;31040;51.622;10.420;2024-02-26T03:35:37;1.02;;;0.80;;
45296;SDS011;31040;51.622;10.420;2024-02-26T03:38:05;0.88;;;0.80;;
45296;SDS011;31040;51.622;10.420;2024-02-26T03:40:32;0.60;;;0.60;;
45296;SDS011;31040;51.622;10.420;2024-02-26T03:43:00;1.08;;;0.90;;
45296;SDS011;31040;51.622;10.420;2024-02-26T03:45:27;1.67;;;1.00;;
45296;SDS011;31040;51.622;10.420;2024-02-26T03:47:57;1.30;;;0.88;;
45296;SDS011;31040;51.622;10.420;2024-02-26T03:50:24;1.48;;;1.10;;
45296;SDS011;31040;51.622;10.420;2024-02-26T03:52:52;1.15;;;1.05;;
45296;SDS011;31040;51.622;10.420;2024-02-26T03:55:21;0.80;;;0.80;;
45296;SDS011;31040;51.622;10.420;2024-02-26T03:57:51;1.13;;;0.70;;
45296;SDS011;31040;51.622;10.420;2024-02-26T04:00:19;2.20;;;0.93;;
45296;SDS011;31040;51.622;10.420;2024-02-26T04:02:48;1.60;;;1.00;;
45296;SDS011;31040;51.622;10.420;2024-02-26T04:05:16;1.23;;;1.13;;
45296;SDS011;31040;51.622;10.420;2024-02-26T04:07:44;0.95;;;0.77;;
45296;SDS011;31040;51.622;10.420;2024-02-26T04:10:11;1.88;;;1.08;;
45296;SDS011;31040;51.622;10.420;2024-02-26T04:12:39;1.38;;;1.25;;
45296;SDS011;31040;51.622;10.420;2024-02-26T04:15:10;2.53;;;1.58;;
45296;SDS011;31040;51.622;10.420;2024-02-26T04:17:38;1.40;;;1.30;;
45296;SDS011;31040;51.622;10.420;2024-02-26T04:20:05;1.33;;;1.20;;
45296;SDS011;31040;51.622;10.420;2024-02-26T04:22:33;2.75;;;1.70;;
45296;SDS011;31040;51.622;10.420;2024-02-26T04:25:00;2.55;;;1.75;;
45296;SDS011;31040;51.622;10.420;2024-02-26T04:27:29;3.20;;;2.58;;
45296;SDS011;31040;51.622;10.420;2024-02-26T04:29:56;5.70;;;3.90;;
45296;SDS011;31040;51.622;10.420;2024-02-26T04:32:24;6.40;;;3.90;;
45296;SDS011;31040;51.622;10.420;2024-02-26T04:34:52;4.88;;;3.28;;
45296;SDS011;31040;51.622;10.420;2024-02-26T04:37:19;6.70;;;4.15;;
45296;SDS011;31040;51.622;10.420;2024-02-26T04:39:47;4.65;;;3.40;;
45296;SDS011;31040;51.622;10.420;2024-02-26T04:42:16;4.30;;;3.50;;
45296;SDS011;31040;51.622;10.420;2024-02-26T04:44:44;6.88;;;4.20;;
45296;SDS011;31040;51.622;10.420;2024-02-26T04:47:11;7.40;;;4.47;;
45296;SDS011;31040;51.622;10.420;2024-02-26T04:49:39;6.72;;;4.65;;
45296;SDS011;31040;51.622;10.420;2024-02-26T04:52:07;8.15;;;5.28;;
45296;SDS011;31040;51.622;10.420;2024-02-26T04:54:34;8.32;;;5.85;;
45296;SDS011;31040;51.622;10.420;2024-02-26T04:57:02;9.95;;;5.93;;
45296;SDS011;31040;51.622;10.420;2024-02-26T04:59:29;9.40;;;6.45;;
45296;SDS011;31040;51.622;10.420;2024-02-26T05:01:57;11.13;;;7.40;;
45296;SDS011;31040;51.622;10.420;2024-02-26T05:04:24;11.82;;;6.65;;
45296;SDS011;31040;51.622;10.420;2024-02-26T05:06:52;11.00;;;6.93;;
45296;SDS011;31040;51.622;10.420;2024-02-26T05:09:20;11.13;;;7.30;;
45296;SDS011;31040;51.622;10.420;2024-02-26T05:11:48;14.18;;;7.20;;
45296;SDS011;31040;51.622;10.420;2024-02-26T05:14:15;11.68;;;8.07;;
45296;SDS011;31040;51.622;10.420;2024-02-26T05:16:43;12.75;;;7.22;;
45296;SDS011;31040;51.622;10.420;2024-02-26T05:19:10;12.40;;;7.93;;
45296;SDS011;31040;51.622;10.420;2024-02-26T05:21:38;9.55;;;7.10;;
45296;SDS011;31040;51.622;10.420;2024-02-26T05:24:06;12.55;;;8.05;;
45296;SDS011;31040;51.622;10.420;2024-02-26T05:26:34;12.25;;;9.30;;
45296;SDS011;31040;51.622;10.420;2024-02-26T05:29:01;12.82;;;8.73;;
45296;SDS011;31040;51.622;10.420;2024-02-26T05:31:29;14.23;;;8.55;;
45296;SDS011;31040;51.622;10.420;2024-02-26T05:33:56;13.98;;;9.05;;
45296;SDS011;31040;51.622;10.420;2024-02-26T05:36:24;12.30;;;8.20;;
45296;SDS011;31040;51.622;10.420;2024-02-26T05:38:52;14.82;;;9.80;;
45296;SDS011;31040;51.622;10.420;2024-02-26T05:41:20;12.63;;;8.40;;
45296;SDS011;31040;51.622;10.420;2024-02-26T05:43:52;12.45;;;8.73;;
45296;SDS011;31040;51.622;10.420;2024-02-26T05:46:20;13.85;;;8.95;;
45296;SDS011;31040;51.622;10.420;2024-02-26T05:48:48;11.98;;;7.75;;
45296;SDS011;31040;51.622;10.420;2024-02-26T05:51:16;12.13;;;8.27;;
45296;SDS011;31040;51.622;10.420;2024-02-26T05:53:44;11.10;;;7.53;;
45296;SDS011;31040;51.622;10.420;2024-02-26T05:56:13;8.60;;;6.90;;
45296;SDS011;31040;51.622;10.420;2024-02-26T05:58:40;10.90;;;7.50;;
45296;SDS011;31040;51.622;10.420;2024-02-26T06:01:08;9.52;;;7.65;;
45296;SDS011;31040;51.622;10.420;2024-02-26T06:03:35;14.38;;;9.02;;
45296;SDS011;31040;51.622;10.420;2024-02-26T06:06:03;12.75;;;7.72;;
45296;SDS011;31040;51.622;10.420;2024-02-26T06:08:31;13.95;;;6.60;;
45296;SDS011;31040;51.622;10.420;2024-02-26T06:10:58;11.10;;;7.80;;
45296;SDS011;31040;51.622;10.420;2024-02-26T06:13:26;12.50;;;7.82;;
45296;SDS011;31040;51.622;10.420;2024-02-26T06:15:54;11.07;;;8.00;;
45296;SDS011;31040;51.622;10.420;2024-02-26T06:18:21;13.90;;;8.50;;
45296;SDS011;31040;51.622;10.420;2024-02-26T06:20:49;11.88;;;7.13;;
45296;SDS011;31040;51.622;10.420;2024-02-26T06:23:16;11.32;;;7.18;;
45296;SDS011;31040;51.622;10.420;2024-02-26T06:25:44;8.88;;;6.75;;
45296;SDS011;31040;51.622;10.420;2024-02-26T06:28:12;8.02;;;5.88;;
45296;SDS011;31040;51.622;10.420;2024-02-26T06:30:39;9.65;;;6.55;;
45296;SDS011;31040;51.622;10.420;2024-02-26T06:33:07;9.30;;;6.93;;
45296;SDS011;31040;51.622;10.420;2024-02-26T06:35:34;9.43;;;7.43;;
45296;SDS011;31040;51.622;10.420;2024-02-26T06:38:02;7.88;;;5.43;;
45296;SDS011;31040;51.622;10.420;2024-02-26T06:40:30;8.18;;;5.88;;
45296;SDS011;31040;51.622;10.420;2024-02-26T06:42:57;7.93;;;5.57;;
45296;SDS011;31040;51.622;10.420;2024-02-26T06:45:25;6.68;;;4.78;;
45296;SDS011;31040;51.622;10.420;2024-02-26T06:47:52;8.02;;;4.95;;
45296;SDS011;31040;51.622;10.420;2024-02-26T06:50:20;7.30;;;5.03;;
45296;SDS011;31040;51.622;10.420;2024-02-26T06:52:48;7.45;;;4.93;;
45296;SDS011;31040;51.622;10.420;2024-02-26T06:55:15;8.15;;;5.20;;
45296;SDS011;31040;51.622;10.420;2024-02-26T06:57:42;6.82;;;5.00;;
45296;SDS011;31040;51.622;10.420;2024-02-26T07:00:10;6.13;;;4.55;;
45296;SDS011;31040;51.622;10.420;2024-02-26T07:02:42;8.07;;;5.43;;
45296;SDS011;31040;51.622;10.420;2024-02-26T07:05:09;9.20;;;5.15;;
45296;SDS011;31040;51.622;10.420;2024-02-26T07:07:37;7.07;;;4.63;;
45296;SDS011;31040;51.622;10.420;2024-02-26T07:10:05;6.13;;;4.82;;
45296;SDS011;31040;51.622;10.420;2024-02-26T07:12:32;6.85;;;4.95;;
45296;SDS011;31040;51.622;10.420;2024-02-26T07:15:00;4.85;;;3.63;;
45296;SDS011;31040;51.622;10.420;2024-02-26T07:17:29;8.10;;;4.95;;
45296;SDS011;31040;51.622;10.420;2024-02-26T07:19:56;7.03;;;5.18;;
45296;SDS011;31040;51.622;10.420;2024-02-26T07:22:24;5.97;;;4.68;;
45296;SDS011;31040;51.622;10.420;2024-02-26T07:24:51;5.65;;;4.78;;
45296;SDS011;31040;51.622;10.420;2024-02-26T07:27:19;5.97;;;4.72;;
45296;SDS011;31040;51.622;10.420;2024-02-26T07:29:48;5.95;;;4.93;;
45296;SDS011;31040;51.622;10.420;2024-02-26T07:32:15;8.95;;;5.45;;
45296;SDS011;31040;51.622;10.420;2024-02-26T07:34:42;5.95;;;4.97;;
45296;SDS011;31040;51.622;10.420;2024-02-26T07:37:11;8.73;;;6.10;;
45296;SDS011;31040;51.622;10.420;2024-02-26T07:39:39;6.60;;;5.35;;
45296;SDS011;31040;51.622;10.420;2024-02-26T07:42:06;7.78;;;5.75;;
45296;SDS011;31040;51.622;10.420;2024-02-26T07:44:34;7.15;;;5.07;;
45296;SDS011;31040;51.622;10.420;2024-02-26T07:47:01;7.38;;;5.25;;
45296;SDS011;31040;51.622;10.420;2024-02-26T07:49:29;6.15;;;4.00;;
45296;SDS011;31040;51.622;10.420;2024-02-26T07:51:56;5.68;;;4.20;;
45296;SDS011;31040;51.622;10.420;2024-02-26T07:54:25;11.55;;;6.80;;
45296;SDS011;31040;51.622;10.420;2024-02-26T07:56:52;9.35;;;6.28;;
45296;SDS011;31040;51.622;10.420;2024-02-26T07:59:20;8.50;;;6.38;;
45296;SDS011;31040;51.622;10.420;2024-02-26T08:01:50;10.07;;;6.40;;
45296;SDS011;31040;51.622;10.420;2024-02-26T08:04:24;10.88;;;6.68;;
45296;SDS011;31040;51.622;10.420;2024-02-26T08:06:53;10.80;;;6.22;;
45296;SDS011;31040;51.622;10.420;2024-02-26T08:09:21;7.57;;;5.88;;
45296;SDS011;31040;51.622;10.420;2024-02-26T08:11:48;7.93;;;6.15;;
45296;SDS011;31040;51.622;10.420;2024-02-26T08:14:16;8.75;;;6.45;;
45296;SDS011;31040;51.622;10.420;2024-02-26T08:16:43;10.23;;;7.35;;
45296;SDS011;31040;51.622;10.420;2024-02-26T08:19:11;9.10;;;6.95;;
45296;SDS011;31040;51.622;10.420;2024-02-26T08:21:41;10.27;;;7.53;;
45296;SDS011;31040;51.622;10.420;2024-02-26T08:24:08;10.23;;;6.78;;
45296;SDS011;31040;51.622;10.420;2024-02-26T08:26:36;8.68;;;6.25;;
45296;SDS011;31040;51.622;10.420;2024-02-26T08:29:03;10.30;;;7.00;;
45296;SDS011;31040;51.622;10.420;2024-02-26T08:31:31;9.98;;;6.28;;
45296;SDS011;31040;51.622;10.420;2024-02-26T08:33:58;8.57;;;6.30;;
45296;SDS011;31040;51.622;10.420;2024-02-26T08:36:27;8.50;;;6.90;;
45296;SDS011;31040;51.622;10.420;2024-02-26T08:38:54;9.85;;;6.68;;
45296;SDS011;31040;51.622;10.420;2024-02-26T08:41:22;10.05;;;7.68;;
45296;SDS011;31040;51.622;10.420;2024-02-26T08:43:49;8.88;;;6.65;;
45296;SDS011;31040;51.622;10.420;2024-02-26T08:46:17;10.00;;;6.82;;
45296;SDS011;31040;51.622;10.420;2024-02-26T08:48:44;9.35;;;7.10;;
45296;SDS011;31040;51.622;10.420;2024-02-26T08:51:12;8.23;;;6.28;;
45296;SDS011;31040;51.622;10.420;2024-02-26T08:53:39;12.48;;;7.45;;
45296;SDS011;31040;51.622;10.420;2024-02-26T08:56:09;8.25;;;6.68;;
45296;SDS011;31040;51.622;10.420;2024-02-26T08:58:44;10.65;;;6.25;;
45296;SDS011;31040;51.622;10.420;2024-02-26T09:01:15;9.43;;;7.40;;
45296;SDS011;31040;51.622;10.420;2024-02-26T09:03:43;12.25;;;7.35;;
45296;SDS011;31040;51.622;10.420;2024-02-26T09:06:11;8.48;;;6.07;;
45296;SDS011;31040;51.622;10.420;2024-02-26T09:08:38;10.95;;;7.93;;
45296;SDS011;31040;51.622;10.420;2024-02-26T09:11:06;10.45;;;7.13;;
45296;SDS011;31040;51.622;10.420;2024-02-26T09:13:33;9.93;;;7.18;;
45296;SDS011;31040;51.622;10.420;2024-02-26T09:16:01;12.75;;;7.70;;
45296;SDS011;31040;51.622;10.420;2024-02-26T09:18:29;9.05;;;7.50;;
45296;SDS011;31040;51.622;10.420;2024-02-26T09:20:56;11.18;;;8.52;;
45296;SDS011;31040;51.622;10.420;2024-02-26T09:23:24;11.07;;;8.05;;
45296;SDS011;31040;51.622;10.420;2024-02-26T09:25:51;13.10;;;8.32;;
45296;SDS011;31040;51.622;10.420;2024-02-26T09:28:19;10.70;;;7.65;;
45296;SDS011;31040;51.622;10.420;2024-02-26T09:30:46;12.45;;;8.38;;
45296;SDS011;31040;51.622;10.420;2024-02-26T09:33:14;10.43;;;7.75;;
45296;SDS011;31040;51.622;10.420;2024-02-26T09:35:42;10.50;;;6.97;;
45296;SDS011;31040;51.622;10.420;2024-02-26T09:38:09;10.07;;;6.25;;
45296;SDS011;31040;51.622;10.420;2024-02-26T09:40:37;10.45;;;7.45;;
45296;SDS011;31040;51.622;10.420;2024-02-26T09:43:04;9.45;;;7.30;;
45296;SDS011;31040;51.622;10.420;2024-02-26T09:45:32;11.88;;;7.75;;
45296;SDS011;31040;51.622;10.420;2024-02-26T09:48:00;12.88;;;8.35;;
45296;SDS011;31040;51.622;10.420;2024-02-26T09:50:31;10.43;;;7.53;;
45296;SDS011;31040;51.622;10.420;2024-02-26T09:52:58;9.75;;;6.45;;
45296;SDS011;31040;51.622;10.420;2024-02-26T09:55:29;10.63;;;7.13;;
45296;SDS011;31040;51.622;10.420;2024-02-26T09:57:56;10.18;;;6.63;;
45296;SDS011;31040;51.622;10.420;2024-02-26T10:00:25;10.68;;;7.28;;
45296;SDS011;31040;51.622;10.420;2024-02-26T10:02:56;10.23;;;7.55;;
45296;SDS011;31040;51.622;10.420;2024-02-26T10:05:25;8.07;;;7.28;;
45296;SDS011;31040;51.622;10.420;2024-02-26T10:07:53;10.10;;;7.22;;
45296;SDS011;31040;51.622;10.420;2024-02-26T10:10:22;11.40;;;7.38;;
45296;SDS011;31040;51.622;10.420;2024-02-26T10:12:49;8.10;;;6.78;;
45296;SDS011;31040;51.622;10.420;2024-02-26T10:15:17;9.70;;;6.30;;
45296;SDS011;31040;51.622;10.420;2024-02-26T10:17:44;9.27;;;6.68;;
45296;SDS011;31040;51.622;10.420;2024-02-26T10:22:41;8.68;;;6.47;;
45296;SDS011;31040;51.622;10.420;2024-02-26T10:25:09;8.52;;;6.65;;
45296;SDS011;31040;51.622;10.420;2024-02-26T10:27:37;8.85;;;6.43;;
45296;SDS011;31040;51.622;10.420;2024-02-26T10:30:12;7.40;;;5.57;;
45296;SDS011;31040;51.622;10.420;2024-02-26T10:32:44;9.50;;;7.13;;
45296;SDS011;31040;51.622;10.420;2024-02-26T10:35:13;6.97;;;5.72;;
45296;SDS011;31040;51.622;10.420;2024-02-26T10:37:41;6.82;;;5.05;;
45296;SDS011;31040;51.622;10.420;2024-02-26T10:40:12;8.73;;;5.32;;
45296;SDS011;31040;51.622;10.420;2024-02-26T10:42:40;8.82;;;5.43;;
45296;SDS011;31040;51.622;10.420;2024-02-26T10:45:08;8.27;;;5.35;;
45296;SDS011;31040;51.622;10.420;2024-02-26T10:47:36;7.78;;;5.60;;
45296;SDS011;31040;51.622;10.420;2024-02-26T10:50:05;8.18;;;5.35;;
45296;SDS011;31040;51.622;10.420;2024-02-26T10:52:34;7.55;;;5.10;;
45296;SDS011;31040;51.622;10.420;2024-02-26T10:55:02;7.05;;;6.13;;
45296;SDS011;31040;51.622;10.420;2024-02-26T10:57:40;7.60;;;5.22;;
45296;SDS011;31040;51.622;10.420;2024-02-26T11:00:10;8.25;;;5.32;;
45296;SDS011;31040;51.622;10.420;2024-02-26T11:02:40;8.82;;;5.03;;
45296;SDS011;31040;51.622;10.420;2024-02-26T11:05:07;7.18;;;5.50;;
45296;SDS011;31040;51.622;10.420;2024-02-26T11:07:35;7.85;;;5.25;;
45296;SDS011;31040;51.622;10.420;2024-02-26T11:10:04;8.15;;;4.95;;
45296;SDS011;31040;51.622;10.420;2024-02-26T11:12:34;7.28;;;5.63;;
45296;SDS011;31040;51.622;10.420;2024-02-26T11:15:04;10.10;;;5.18;;
45296;SDS011;31040;51.622;10.420;2024-02-26T11:17:32;7.03;;;5.10;;
45296;SDS011;31040;51.622;10.420;2024-02-26T11:20:01;5.40;;;4.43;;
45296;SDS011;31040;51.622;10.420;2024-02-26T11:22:32;6.72;;;5.15;;
45296;SDS011;31040;51.622;10.420;2024-02-26T11:25:00;8.07;;;5.30;;
45296;SDS011;31040;51.622;10.420;2024-02-26T11:27:29;6.47;;;5.32;;
45296;SDS011;31040;51.622;10.420;2024-02-26T11:29:59;6.07;;;5.07;;
45296;SDS011;31040;51.622;10.420;2024-02-26T11:32:28;7.32;;;5.07;;
45296;SDS011;31040;51.622;10.420;2024-02-26T11:35:00;6.40;;;4.70;;
45296;SDS011;31040;51.622;10.420;2024-02-26T11:37:27;6.47;;;4.05;;
45296;SDS011;31040;51.622;10.420;2024-02-26T11:39:55;9.40;;;5.63;;
45296;SDS011;31040;51.622;10.420;2024-02-26T11:42:26;7.40;;;5.47;;
45296;SDS011;31040;51.622;10.420;2024-02-26T11:44:55;6.68;;;4.20;;
45296;SDS011;31040;51.622;10.420;2024-02-26T11:47:27;6.47;;;5.20;;
45296;SDS011;31040;51.622;10.420;2024-02-26T11:49:55;8.70;;;5.78;;
45296;SDS011;31040;51.622;10.420;2024-02-26T11:52:22;6.22;;;5.20;;
45296;SDS011;31040;51.622;10.420;2024-02-26T11:54:50;7.50;;;4.97;;
45296;SDS011;31040;51.622;10.420;2024-02-26T11:59:49;7.95;;;5.68;;
45296;SDS011;31040;51.622;10.420;2024-02-26T12:05:07;6.07;;;4.78;;
45296;SDS011;31040;51.622;10.420;2024-02-26T12:07:36;7.47;;;5.07;;
45296;SDS011;31040;51.622;10.420;2024-02-26T12:15:33;8.57;;;5.57;;
45296;SDS011;31040;51.622;10.420;2024-02-26T12:18:01;7.95;;;5.10;;
45296;SDS011;31040;51.622;10.420;2024-02-26T12:20:29;7.05;;;5.00;;
45296;SDS011;31040;51.622;10.420;2024-02-26T12:22:57;6.28;;;5.05;;
45296;SDS011;31040;51.622;10.420;2024-02-26T12:25:25;8.27;;;5.68;;
45296;SDS011;31040;51.622;10.420;2024-02-26T12:27:53;8.05;;;5.68;;
45296;SDS011;31040;51.622;10.420;2024-02-26T12:30:21;6.30;;;5.05;;
45296;SDS011;31040;51.622;10.420;2024-02-26T12:32:49;7.07;;;5.90;;
45296;SDS011;31040;51.622;10.420;2024-02-26T12:35:17;6.57;;;4.90;;
45296;SDS011;31040;51.622;10.420;2024-02-26T12:37:45;7.03;;;5.05;;
45296;SDS011;31040;51.622;10.420;2024-02-26T12:40:13;5.80;;;4.93;;
45296;SDS011;31040;51.622;10.420;2024-02-26T12:42:41;7.60;;;5.07;;
45296;SDS011;31040;51.622;10.420;2024-02-26T12:45:12;9.00;;;5.72;;
45296;SDS011;31040;51.622;10.420;2024-02-26T12:47:40;7.15;;;5.30;;
45296;SDS011;31040;51.622;10.420;2024-02-26T12:50:08;6.25;;;4.97;;
45296;SDS011;31040;51.622;10.420;2024-02-26T12:52:37;6.70;;;4.68;;
45296;SDS011;31040;51.622;10.420;2024-02-26T12:55:06;6.78;;;5.18;;
45296;SDS011;31040;51.622;10.420;2024-02-26T12:57:37;6.15;;;5.03;;
45296;SDS011;31040;51.622;10.420;2024-02-26T13:00:05;6.13;;;4.88;;
45296;SDS011;31040;51.622;10.420;2024-02-26T13:02:36;8.52;;;5.40;;
45296;SDS011;31040;51.622;10.420;2024-02-26T13:05:05;11.88;;;5.63;;
45296;SDS011;31040;51.622;10.420;2024-02-26T13:07:33;4.68;;;3.83;;
45296;SDS011;31040;51.622;10.420;2024-02-26T13:10:00;9.63;;;5.00;;
45296;SDS011;31040;51.622;10.420;2024-02-26T13:12:28;8.55;;;5.70;;
45296;SDS011;31040;51.622;10.420;2024-02-26T13:15:02;6.28;;;4.90;;
45296;SDS011;31040;51.622;10.420;2024-02-26T13:17:33;6.05;;;4.78;;
45296;SDS011;31040;51.622;10.420;2024-02-26T13:20:01;7.00;;;4.80;;
45296;SDS011;31040;51.622;10.420;2024-02-26T13:22:30;6.78;;;5.00;;
45296;SDS011;31040;51.622;10.420;2024-02-26T13:24:59;6.90;;;4.28;;
45296;SDS011;31040;51.622;10.420;2024-02-26T13:27:29;7.35;;;5.60;;
45296;SDS011;31040;51.622;10.420;2024-02-26T13:32:34;7.65;;;5.05;;
45296;SDS011;31040;51.622;10.420;2024-02-26T13:37:34;6.20;;;5.57;;
45296;SDS011;31040;51.622;10.420;2024-02-26T13:40:11;6.10;;;4.85;;
45296;SDS011;31040;51.622;10.420;2024-02-26T13:42:38;7.20;;;4.22;;
45296;SDS011;31040;51.622;10.420;2024-02-26T13:45:06;5.25;;;4.50;;
45296;SDS011;31040;51.622;10.420;2024-02-26T13:47:35;6.78;;;4.80;;
45296;SDS011;31040;51.622;10.420;2024-02-26T13:50:02;14.10;;;12.57;;
45296;SDS011;31040;51.622;10.420;2024-02-26T13:52:30;9.50;;;7.18;;
45296;SDS011;31040;51.622;10.420;2024-02-26T13:54:59;10.57;;;5.85;;
45296;SDS011;31040;51.622;10.420;2024-02-26T13:57:26;6.88;;;5.10;;
45296;SDS011;31040;51.622;10.420;2024-02-26T13:59:55;7.93;;;5.60;;
45296;SDS011;31040;51.622;10.420;2024-02-26T14:02:22;7.55;;;5.32;;
45296;SDS011;31040;51.622;10.420;2024-02-26T14:04:50;7.75;;;5.90;;
45296;SDS011;31040;51.622;10.420;2024-02-26T14:07:17;7.13;;;6.38;;
45296;SDS011;31040;51.622;10.420;2024-02-26T14:09:46;8.10;;;5.55;;
45296;SDS011;31040;51.622;10.420;2024-02-26T14:12:16;9.77;;;6.35;;
45296;SDS011;31040;51.622;10.420;2024-02-26T14:14:48;6.78;;;5.68;;
45296;SDS011;31040;51.622;10.420;2024-02-26T14:17:15;9.00;;;5.93;;
45296;SDS011;31040;51.622;10.420;2024-02-26T14:19:43;8.48;;;5.68;;
45296;SDS011;31040;51.622;10.420;2024-02-26T14:22:11;4.90;;;3.58;;
45296;SDS011;31040;51.622;10.420;2024-02-26T14:24:38;6.45;;;5.18;;
45296;SDS011;31040;51.622;10.420;2024-02-26T14:27:11;8.63;;;6.10;;
45296;SDS011;31040;51.622;10.420;2024-02-26T14:29:42;8.43;;;6.70;;
45296;SDS011;31040;51.622;10.420;2024-02-26T14:32:10;9.77;;;5.85;;
45296;SDS011;31040;51.622;10.420;2024-02-26T14:34:37;7.72;;;5.00;;
45296;SDS011;31040;51.622;10.420;2024-02-26T14:37:05;7.80;;;5.25;;
45296;SDS011;31040;51.622;10.420;2024-02-26T14:39:33;7.20;;;5.63;;
45296;SDS011;31040;51.622;10.420;2024-02-26T14:42:00;9.38;;;6.20;;
45296;SDS011;31040;51.622;10.420;2024-02-26T14:44:28;8.07;;;5.85;;
45296;SDS011;31040;51.622;10.420;2024-02-26T14:46:55;8.50;;;5.78;;
45296;SDS011;31040;51.622;10.420;2024-02-26T14:49:23;7.53;;;5.90;;
45296;SDS011;31040;51.622;10.420;2024-02-26T14:51:50;6.55;;;5.50;;
45296;SDS011;31040;51.622;10.420;2024-02-26T14:54:18;8.32;;;5.68;;